Time;durP1;ratioP1;P1;durP2;ratioP2;P2;SDS_P1;SDS_P2;PMS_P1;PMS_P2;Temp;Humidity;BMP_temperature;BMP_pressure;BME280_temperature;BME280_humidity;BME280_pressure;Samples;Min_cycle;Max_cycle;Signal;HPM_P1;HPM_P2
2022/07/19 00:01:39;;;;;;;37.95;35.85;;;;;;;14.56;100.00;101755.09;4973513;28;20046;-84
2022/07/19 00:04:07;;;;;;;36.08;33.95;;;;;;;14.51;100.00;101752.22;4967785;28;20432;-83
2022/07/19 00:06:34;;;;;;;37.55;35.65;;;;;;;14.69;100.00;101753.44;4963266;28;20046;-86
2022/07/19 00:09:09;;;;;;;36.92;35.03;;;;;;;14.65;100.00;101748.50;4975287;28;20058;-84
2022/07/19 00:11:37;;;;;;;36.83;34.85;;;;;;;14.20;100.00;101748.28;4970149;28;20066;-85
2022/07/19 00:14:07;;;;;;;40.83;38.75;;;;;;;14.85;100.00;101747.63;4975322;28;20113;-84
2022/07/19 00:16:42;;;;;;;35.97;33.70;;;;;;;13.79;100.00;101747.59;4969796;28;20046;-84
2022/07/19 00:19:10;;;;;;;36.70;34.65;;;;;;;13.51;100.00;101752.03;4974287;28;20428;-84
2022/07/19 00:21:41;;;;;;;38.45;36.35;;;;;;;13.77;100.00;101757.66;4975291;28;20054;-83
2022/07/19 00:24:08;;;;;;;34.10;32.08;;;;;;;13.67;100.00;101750.03;4974926;28;20065;-83
2022/07/19 00:26:36;;;;;;;39.58;37.45;;;;;;;14.35;100.00;101745.41;4966620;28;20047;-83
2022/07/19 00:29:05;;;;;;;38.88;36.20;;;;;;;14.58;100.00;101741.50;4964209;28;20063;-83
2022/07/19 00:31:39;;;;;;;38.00;35.67;;;;;;;14.52;100.00;101734.31;4965100;28;20050;-84
2022/07/19 00:34:11;;;;;;;44.35;42.00;;;;;;;14.43;100.00;101741.69;4973784;28;20392;-84
2022/07/19 00:36:38;;;;;;;36.08;33.95;;;;;;;14.40;100.00;101740.28;4965595;28;20129;-83
2022/07/19 00:39:05;;;;;;;34.03;32.22;;;;;;;14.36;100.00;101746.22;4975413;28;20043;-84
2022/07/19 00:41:33;;;;;;;31.42;29.52;;;;;;;14.30;100.00;101741.72;4980586;28;20117;-84
2022/07/19 00:44:00;;;;;;;35.88;34.00;;;;;;;14.39;100.00;101738.63;4977475;28;20133;-85
2022/07/19 00:46:27;;;;;;;32.97;31.13;;;;;;;14.41;100.00;101741.09;4973908;28;20109;-85
2022/07/19 00:48:56;;;;;;;30.48;28.67;;;;;;;14.33;100.00;101735.94;4974866;28;20057;-85
2022/07/19 00:51:25;;;;;;;28.70;27.10;;;;;;;13.92;100.00;101735.13;4968038;28;20059;-84
2022/07/19 00:53:53;;;;;;;30.92;29.23;;;;;;;13.95;100.00;101737.38;4971172;28;20046;-84
2022/07/19 00:56:21;;;;;;;31.75;30.05;;;;;;;13.57;100.00;101737.06;4975070;28;20066;-85
2022/07/19 00:58:55;;;;;;;31.30;29.60;;;;;;;14.23;100.00;101732.88;4984449;28;20038;-84
2022/07/19 01:01:23;;;;;;;30.80;29.20;;;;;;;14.25;100.00;101734.31;4989779;28;20125;-84
2022/07/19 01:03:54;;;;;;;33.10;31.20;;;;;;;14.07;100.00;101731.41;4977536;28;20059;-85
2022/07/19 01:06:27;;;;;;;31.13;29.30;;;;;;;14.06;100.00;101741.28;4978238;28;20051;-85
2022/07/19 01:08:55;;;;;;;28.85;27.05;;;;;;;13.86;100.00;101738.59;4982331;28;20061;-85
2022/07/19 01:11:26;;;;;;;29.30;27.60;;;;;;;13.99;100.00;101740.47;4982883;28;20073;-85
2022/07/19 01:13:54;;;;;;;30.70;28.73;;;;;;;13.86;100.00;101735.94;4978904;28;20077;-83
2022/07/19 01:16:26;;;;;;;31.88;29.98;;;;;;;13.81;100.00;101748.25;4964533;28;20109;-84
2022/07/19 01:18:56;;;;;;;30.05;28.17;;;;;;;14.01;100.00;101735.75;4977371;28;20475;-84
2022/07/19 01:21:32;;;;;;;29.40;27.58;;;;;;;13.94;100.00;101740.25;4976994;28;20392;-84
2022/07/19 01:24:00;;;;;;;30.48;28.58;;;;;;;13.80;100.00;101736.75;4965300;28;20563;-83
2022/07/19 01:26:34;;;;;;;30.20;28.40;;;;;;;13.93;100.00;101735.94;4978100;28;20459;-83
2022/07/19 01:29:04;;;;;;;28.80;27.27;;;;;;;13.83;100.00;101740.81;4973906;28;20054;-84
2022/07/19 01:31:40;;;;;;;27.90;26.27;;;;;;;13.80;100.00;101738.56;4975612;28;20498;-84
2022/07/19 01:34:07;;;;;;;28.55;26.73;;;;;;;13.63;100.00;101738.94;4967054;28;20138;-84
2022/07/19 01:36:37;;;;;;;30.80;29.20;;;;;;;12.96;100.00;101735.16;4978265;28;20113;-83
2022/07/19 01:39:05;;;;;;;35.33;33.53;;;;;;;12.79;100.00;101728.47;4975913;28;20500;-84
2022/07/19 01:41:32;;;;;;;33.42;31.52;;;;;;;13.04;100.00;101736.81;4975600;28;20047;-82
2022/07/19 01:44:00;;;;;;;29.88;27.98;;;;;;;12.51;100.00;101733.84;4967623;28;20415;-83
2022/07/19 01:46:28;;;;;;;28.70;26.90;;;;;;;13.28;100.00;101743.53;4977881;28;20043;-84
2022/07/19 01:48:55;;;;;;;27.15;25.35;;;;;;;13.50;100.00;101738.91;4977915;28;20046;-84
2022/07/19 01:51:22;;;;;;;26.75;25.15;;;;;;;13.71;100.00;101737.94;4977671;28;20042;-82
2022/07/19 01:53:56;;;;;;;27.77;25.98;;;;;;;13.09;100.00;101741.56;4978023;28;20415;-83
2022/07/19 01:56:29;;;;;;;30.50;28.15;;;;;;;13.77;100.00;101739.81;4976973;28;20047;-84
2022/07/19 01:58:56;;;;;;;27.88;26.13;;;;;;;13.46;100.00;101743.84;4980507;28;20046;-84
2022/07/19 02:01:22;;;;;;;30.15;28.33;;;;;;;13.45;100.00;101749.34;5080426;23;20055;-82
2022/07/19 02:03:51;;;;;;;30.20;28.15;;;;;;;13.70;100.00;101744.28;4974481;28;20053;-83
2022/07/19 02:06:20;;;;;;;28.63;27.23;;;;;;;12.72;100.00;101743.63;4973581;28;20055;-83
2022/07/19 02:08:47;;;;;;;33.72;31.55;;;;;;;13.33;100.00;101743.75;4979846;28;20055;-81
2022/07/19 02:14:00;;;;;;;31.70;29.90;;;;;;;13.45;100.00;101744.03;4966690;28;20119;-83
2022/07/19 02:16:29;;;;;;;34.35;32.58;;;;;;;13.40;100.00;101746.47;4967024;28;20569;-82
2022/07/19 02:19:01;;;;;;;30.63;29.02;;;;;;;12.97;100.00;101752.78;4976823;28;20051;-84
2022/07/19 02:21:30;;;;;;;37.30;35.50;;;;;;;12.64;100.00;101741.91;4977503;28;20057;-83
2022/07/19 02:24:03;;;;;;;31.02;29.23;;;;;;;12.76;100.00;101742.19;4977380;28;20063;-83
2022/07/19 02:26:32;;;;;;;34.72;33.03;;;;;;;13.23;100.00;101749.44;4966251;28;20055;-81
2022/07/19 02:29:01;;;;;;;37.88;35.92;;;;;;;13.09;100.00;101749.56;4982843;28;20050;-84
2022/07/19 02:31:28;;;;;;;37.72;35.92;;;;;;;12.81;100.00;101739.78;4987578;28;20487;-82
2022/07/19 02:34:03;;;;;;;32.63;30.98;;;;;;;12.90;100.00;101741.28;4977072;28;20046;-81
2022/07/19 02:36:30;;;;;;;29.35;27.85;;;;;;;12.61;100.00;101740.44;4958781;28;20050;-84
2022/07/19 02:39:13;;;;;;;28.77;27.05;;;;;;;12.14;100.00;101744.59;4958311;29;20482;-83
2022/07/19 02:41:44;;;;;;;28.33;26.83;;;;;;;12.24;100.00;101746.13;4983143;28;20061;-83
2022/07/19 02:44:11;;;;;;;28.63;26.92;;;;;;;12.33;100.00;101748.44;4969551;28;20075;-83
2022/07/19 02:46:40;;;;;;;30.02;28.17;;;;;;;12.57;100.00;101749.03;4977006;28;20054;-84
2022/07/19 02:49:10;;;;;;;30.02;28.23;;;;;;;13.28;100.00;101746.19;4977122;28;20058;-81
2022/07/19 02:51:37;;;;;;;26.50;24.85;;;;;;;12.97;100.00;101746.63;4969597;28;20074;-82
2022/07/19 02:54:04;;;;;;;27.20;25.20;;;;;;;13.01;100.00;101747.88;4980405;28;20526;-82
2022/07/19 02:56:31;;;;;;;25.45;23.95;;;;;;;12.74;100.00;101752.25;4971535;28;20051;-81
2022/07/19 02:58:59;;;;;;;25.35;23.55;;;;;;;12.53;100.00;101755.78;4974503;28;20098;-81
2022/07/19 03:01:26;;;;;;;25.10;23.60;;;;;;;12.77;100.00;101755.34;4970730;28;20058;-82
2022/07/19 03:04:03;;;;;;;25.35;23.85;;;;;;;12.46;100.00;101761.03;4969412;28;20502;-81
2022/07/19 03:06:31;;;;;;;24.33;23.02;;;;;;;12.05;100.00;101766.22;4972581;28;20055;-81
2022/07/19 03:08:58;;;;;;;24.25;22.67;;;;;;;12.10;100.00;101767.31;4960300;28;20051;-81
2022/07/19 03:11:25;;;;;;;43.35;41.03;;;;;;;12.23;100.00;101766.59;4977245;28;20051;-81
2022/07/19 03:13:52;;;;;;;49.97;47.33;;;;;;;11.99;100.00;101764.31;4978279;28;20117;-81
2022/07/19 03:16:21;;;;;;;50.60;48.08;;;;;;;11.87;100.00;101769.31;4973846;28;20047;-81
2022/07/19 03:18:49;;;;;;;43.90;41.70;;;;;;;12.21;100.00;101773.13;4974093;28;20070;-81
2022/07/19 03:21:17;;;;;;;43.53;41.22;;;;;;;12.42;100.00;101765.13;4976336;28;20054;-81
2022/07/19 03:23:45;;;;;;;50.13;47.47;;;;;;;13.28;100.00;101767.53;4971174;28;20047;-81
2022/07/19 03:26:12;;;;;;;52.33;49.55;;;;;;;12.89;100.00;101766.28;4964532;28;20051;-82
2022/07/19 03:28:48;;;;;;;46.17;43.63;;;;;;;13.64;100.00;101769.94;4975737;28;20039;-81
2022/07/19 03:31:16;;;;;;;27.45;25.65;;;;;;;13.76;100.00;101767.50;4979300;28;20081;-82
2022/07/19 03:33:45;;;;;;;27.73;26.13;;;;;;;13.90;100.00;101777.22;4974950;28;20062;-82
2022/07/19 03:36:18;;;;;;;27.55;25.88;;;;;;;13.96;100.00;101775.59;4973232;28;20046;-82
2022/07/19 03:38:45;;;;;;;27.48;25.80;;;;;;;14.03;100.00;101775.59;4967132;28;20043;-82
2022/07/19 03:41:14;;;;;;;29.08;27.58;;;;;;;14.22;100.00;101774.81;4972355;28;20046;-82
2022/07/19 03:43:42;;;;;;;26.35;24.52;;;;;;;14.16;100.00;101778.28;4973083;28;20051;-81
2022/07/19 03:46:16;;;;;;;26.98;25.38;;;;;;;14.33;100.00;101782.19;4972836;28;20074;-82
2022/07/19 03:48:45;;;;;;;34.25;32.13;;;;;;;14.32;100.00;101782.41;4974431;28;20050;-83
2022/07/19 03:51:23;;;;;;;31.55;29.50;;;;;;;14.55;100.00;101785.50;4972604;28;20070;-82
2022/07/19 03:53:50;;;;;;;31.35;29.65;;;;;;;14.71;100.00;101780.81;4974988;28;20055;-82
2022/07/19 03:56:20;;;;;;;27.73;26.20;;;;;;;14.25;100.00;101795.78;4975705;28;20049;-82
2022/07/19 03:58:50;;;;;;;30.90;28.92;;;;;;;14.51;100.00;101789.63;4973655;28;20055;-82
2022/07/19 04:01:17;;;;;;;27.05;25.45;;;;;;;14.73;100.00;101792.91;4967755;28;20105;-82
2022/07/19 04:03:51;;;;;;;30.85;29.15;;;;;;;14.95;100.00;101793.53;4968248;28;20055;-81
2022/07/19 04:06:18;;;;;;;28.65;27.05;;;;;;;15.00;100.00;101795.56;4965578;28;20039;-82
2022/07/19 04:08:45;;;;;;;27.23;25.35;;;;;;;15.26;100.00;101790.13;4965623;28;20084;-81
2022/07/19 04:11:12;;;;;;;26.65;24.85;;;;;;;15.22;100.00;101793.44;4966231;28;20070;-80
2022/07/19 04:13:41;;;;;;;29.00;27.38;;;;;;;15.18;100.00;101790.38;4967878;28;20074;-82
2022/07/19 04:16:08;;;;;;;28.05;26.20;;;;;;;15.61;100.00;101797.81;4969184;28;20517;-80
2022/07/19 04:18:41;;;;;;;27.60;25.48;;;;;;;15.11;100.00;101808.31;4971637;28;20450;-81
2022/07/19 04:21:10;;;;;;;27.02;25.42;;;;;;;15.50;100.00;101802.00;4976432;28;20113;-82
2022/07/19 04:23:43;;;;;;;24.73;23.02;;;;;;;15.06;100.00;101808.09;4968364;28;20054;-82
2022/07/19 04:26:11;;;;;;;23.48;21.98;;;;;;;15.70;100.00;101806.47;4969428;28;20474;-82
2022/07/19 04:28:38;;;;;;;24.63;22.92;;;;;;;15.76;100.00;101801.09;4968619;28;20054;-81
2022/07/19 04:31:05;;;;;;;25.75;23.98;;;;;;;15.76;100.00;101801.09;4967258;28;20126;-81
2022/07/19 04:33:42;;;;;;;27.38;25.25;;;;;;;15.83;100.00;101797.56;4968497;28;20046;-82
2022/07/19 04:36:11;;;;;;;24.90;23.10;;;;;;;16.46;100.00;101793.00;4967134;28;20109;-83
2022/07/19 04:38:38;;;;;;;24.95;23.45;;;;;;;15.99;100.00;101803.22;4969066;28;20054;-82
2022/07/19 04:41:05;;;;;;;23.90;22.40;;;;;;;16.20;100.00;101801.25;4971693;28;20051;-82
2022/07/19 04:43:32;;;;;;;23.85;22.35;;;;;;;16.45;100.00;101799.38;4965921;28;20419;-81
2022/07/19 04:46:03;;;;;;;25.02;23.30;;;;;;;16.34;100.00;101801.94;4971016;28;20058;-82
2022/07/19 04:48:33;;;;;;;24.35;22.65;;;;;;;16.46;100.00;101798.38;4974402;28;20062;-83
2022/07/19 04:51:01;;;;;;;26.08;24.38;;;;;;;16.52;100.00;101806.56;4965018;28;20047;-83
2022/07/19 04:53:32;;;;;;;27.25;25.65;;;;;;;16.42;100.00;101796.31;4975482;28;20050;-82
2022/07/19 04:55:59;;;;;;;29.40;27.58;;;;;;;16.57;100.00;101794.13;4977272;28;20047;-82
2022/07/19 04:58:36;;;;;;;30.35;28.45;;;;;;;16.81;100.00;101805.09;4967263;28;20051;-82
2022/07/19 05:01:03;;;;;;;27.63;25.70;;;;;;;17.05;100.00;101800.75;4968762;28;20491;-82
2022/07/19 05:03:33;;;;;;;27.10;25.40;;;;;;;17.14;100.00;101808.28;4972475;28;20475;-81
2022/07/19 05:06:01;;;;;;;26.27;24.77;;;;;;;17.38;100.00;101806.56;4970030;28;20043;-82
2022/07/19 05:08:30;;;;;;;28.00;26.40;;;;;;;17.36;100.00;101808.63;4976227;28;20061;-81
2022/07/19 05:10:57;;;;;;;28.17;26.42;;;;;;;17.57;100.00;101803.84;4970248;28;20050;-82
2022/07/19 05:13:24;;;;;;;30.30;28.60;;;;;;;17.76;100.00;101807.31;4967871;28;20055;-82
2022/07/19 05:15:53;;;;;;;27.65;25.70;;;;;;;18.08;100.00;101797.19;4976247;28;20065;-83
2022/07/19 05:18:20;;;;;;;24.70;23.10;;;;;;;18.05;100.00;101806.53;4976011;28;20483;-83
2022/07/19 05:20:47;;;;;;;24.83;23.30;;;;;;;18.20;100.00;101807.97;4979577;28;20104;-83
2022/07/19 05:23:14;;;;;;;25.50;23.52;;;;;;;18.26;100.00;101807.06;4982090;28;20050;-83
2022/07/19 05:25:43;;;;;;;26.52;24.92;;;;;;;18.13;100.00;101799.22;4974799;28;20047;-82
2022/07/19 05:28:10;;;;;;;26.67;25.08;;;;;;;18.41;100.00;101791.28;4971518;28;20093;-82
2022/07/19 05:30:51;;;;;;;28.45;26.85;;;;;;;18.58;100.00;101793.28;4976830;28;20047;-82
2022/07/19 05:33:20;;;;;;;27.23;25.83;;;;;;;18.92;100.00;101797.09;4973184;28;20051;-81
2022/07/19 05:35:47;;;;;;;28.95;27.38;;;;;;;19.06;100.00;101789.56;4970696;28;20086;-81
2022/07/19 05:38:14;;;;;;;47.25;44.80;;;;;;;19.10;100.00;101791.56;4965769;28;20059;-81
2022/07/19 05:40:41;;;;;;;52.38;49.67;;;;;;;19.50;100.00;101792.63;4969980;28;20450;-81
2022/07/19 05:43:13;;;;;;;55.28;52.38;;;;;;;19.66;100.00;101787.31;4968815;28;20062;-82
2022/07/19 05:45:40;;;;;;;47.08;44.75;;;;;;;19.76;100.00;101791.25;4978036;28;20450;-80
2022/07/19 05:48:07;;;;;;;60.50;57.40;;;;;;;20.05;100.00;101790.19;4975525;28;20065;-80
2022/07/19 05:50:34;;;;;;;59.65;56.72;;;;;;;20.28;100.00;101786.53;4969497;28;20048;-79
2022/07/19 05:53:01;;;;;;;51.58;48.97;;;;;;;20.40;100.00;101788.34;4974689;28;20043;-79
2022/07/19 05:55:29;;;;;;;59.67;56.40;;;;;;;20.76;100.00;101787.03;4980417;28;20043;-84
2022/07/19 05:57:57;;;;;;;61.00;57.78;;;;;;;20.83;100.00;101781.44;4974235;28;20047;-82
2022/07/19 06:00:25;;;;;;;54.35;51.38;;;;;;;21.05;100.00;101779.56;4975872;28;20046;-82
2022/07/19 06:02:53;;;;;;;70.63;66.97;;;;;;;21.16;100.00;101775.94;4972369;28;20078;-82
2022/07/19 06:05:20;;;;;;;72.70;69.20;;;;;;;21.26;100.00;101776.06;4975638;28;20123;-83
2022/07/19 06:07:50;;;;;;;78.60;74.45;;;;;;;21.45;100.00;101775.78;4977737;28;20054;-82
2022/07/19 06:10:17;;;;;;;77.10;73.53;;;;;;;21.63;100.00;101778.13;4971395;28;20050;-82
2022/07/19 06:12:44;;;;;;;81.18;77.05;;;;;;;21.87;100.00;101767.00;4975384;28;20046;-82
2022/07/19 06:15:11;;;;;;;75.50;71.88;;;;;;;22.37;100.00;101773.97;4975358;28;20061;-83
2022/07/19 06:17:40;;;;;;;69.45;66.05;;;;;;;22.50;95.41;101773.50;4981613;28;20057;-81
2022/07/19 06:20:07;;;;;;;70.07;66.53;;;;;;;22.73;96.41;101774.22;4967085;28;20097;-83
2022/07/19 06:22:34;;;;;;;37.67;35.67;;;;;;;22.72;97.78;101776.09;4980941;28;20053;-85
2022/07/19 06:25:01;;;;;;;38.33;35.78;;;;;;;22.94;92.33;101772.44;4977651;28;20118;-81
2022/07/19 06:27:29;;;;;;;34.03;31.92;;;;;;;22.98;93.00;101763.53;4971209;28;20042;-81
2022/07/19 06:29:57;;;;;;;33.92;31.70;;;;;;;23.12;90.56;101773.88;4980793;28;20073;-82
2022/07/19 06:32:24;;;;;;;36.75;34.78;;;;;;;23.22;89.47;101769.31;4981080;28;20050;-82
2022/07/19 06:34:52;;;;;;;39.10;36.92;;;;;;;23.46;87.68;101769.69;4975892;28;20039;-80
2022/07/19 06:37:19;;;;;;;35.85;33.10;;;;;;;23.54;83.75;101773.75;4968678;28;20065;-80
2022/07/19 06:39:47;;;;;;;33.53;31.25;;;;;;;23.65;82.03;101771.88;4967510;28;20062;-81
2022/07/19 06:42:14;;;;;;;29.45;27.65;;;;;;;23.76;82.90;101770.88;4974905;28;20097;-80
2022/07/19 06:44:43;;;;;;;36.00;33.50;;;;;;;23.90;80.80;101765.72;4974135;28;20503;-81
2022/07/19 06:47:14;;;;;;;33.03;31.05;;;;;;;24.21;74.82;101770.06;4970316;28;20117;-82
2022/07/19 06:49:42;;;;;;;34.25;32.10;;;;;;;24.30;77.39;101766.78;4978592;28;20176;-86
2022/07/19 06:52:12;;;;;;;34.10;32.10;;;;;;;24.82;65.47;101773.81;4979568;28;20051;-82
2022/07/19 06:54:39;;;;;;;65.00;61.42;;;;;;;25.16;62.94;101773.97;4963948;28;20047;-82
2022/07/19 06:57:08;;;;;;;56.78;53.88;;;;;;;25.74;70.24;101757.88;4969383;28;20048;-83
2022/07/19 06:59:36;;;;;;;64.85;61.75;;;;;;;25.74;58.88;101765.22;4973354;28;20118;-83
2022/07/19 07:02:04;;;;;;;65.78;62.30;;;;;;;25.35;64.47;101766.81;4969351;28;20070;-82
2022/07/19 07:04:31;;;;;;;63.38;60.08;;;;;;;25.79;60.21;101759.75;4967990;28;20501;-83
2022/07/19 07:06:58;;;;;;;66.72;63.28;;;;;;;25.84;56.59;101767.91;4972343;28;20055;-82
2022/07/19 07:09:26;;;;;;;58.58;55.45;;;;;;;26.17;52.88;101773.63;4963338;28;20472;-82
2022/07/19 07:11:53;;;;;;;55.78;52.58;;;;;;;26.36;56.17;101769.09;4974928;28;20070;-83
2022/07/19 07:14:21;;;;;;;61.80;58.30;;;;;;;26.30;50.21;101774.91;4976032;28;20054;-83
2022/07/19 07:16:48;;;;;;;66.53;63.13;;;;;;;26.17;51.04;101766.28;4974568;28;20093;-83
2022/07/19 07:19:15;;;;;;;59.85;56.63;;;;;;;26.28;59.52;101773.25;4963755;28;20047;-83
2022/07/19 07:21:44;;;;;;;60.90;57.70;;;;;;;26.57;49.41;101769.75;4961802;28;20050;-82
2022/07/19 07:24:11;;;;;;;56.58;53.42;;;;;;;27.00;44.33;101772.53;4967302;28;20122;-82
2022/07/19 07:26:41;;;;;;;30.40;28.30;;;;;;;27.42;44.58;101773.66;4966058;28;20407;-84
2022/07/19 07:29:09;;;;;;;31.55;29.25;;;;;;;27.40;48.75;101775.84;4971184;28;20059;-82
2022/07/19 07:31:37;;;;;;;29.02;27.08;;;;;;;27.28;50.60;101773.56;4962653;28;20490;-82
2022/07/19 07:34:05;;;;;;;43.30;40.88;;;;;;;27.53;40.82;101771.56;4962881;28;20051;-83
2022/07/19 07:36:32;;;;;;;55.90;52.80;;;;;;;27.68;41.52;101767.81;4966579;28;20042;-82
2022/07/19 07:39:01;;;;;;;31.05;28.88;;;;;;;27.56;40.48;101776.44;4976430;28;20062;-86
2022/07/19 07:41:29;;;;;;;34.25;32.45;;;;;;;27.82;38.92;101775.00;4979140;28;20054;-81
2022/07/19 07:43:58;;;;;;;38.00;36.00;;;;;;;27.70;38.42;101780.06;4974536;28;20110;-82
2022/07/19 07:46:30;;;;;;;57.05;54.35;;;;;;;27.89;39.00;101774.59;4960799;28;20502;-82
2022/07/19 07:48:58;;;;;;;56.80;53.90;;;;;;;27.98;43.95;101761.09;4965323;28;20042;-82
2022/07/19 07:51:26;;;;;;;53.40;50.55;;;;;;;27.90;38.74;101764.50;4969066;28;20054;-84
2022/07/19 07:53:53;;;;;;;48.40;45.92;;;;;;;27.98;38.89;101766.56;4961258;28;20058;-82
2022/07/19 07:56:20;;;;;;;47.00;44.35;;;;;;;27.57;36.81;101767.19;4978623;28;20484;-81
2022/07/19 07:58:47;;;;;;;47.53;45.20;;;;;;;27.98;38.87;101769.28;4966071;28;20051;-80
2022/07/19 08:01:16;;;;;;;45.20;42.75;;;;;;;28.44;38.00;101763.03;4961112;28;20373;-81
2022/07/19 08:03:43;;;;;;;45.40;42.50;;;;;;;28.59;36.68;101767.41;4968408;28;20479;-82
2022/07/19 08:06:11;;;;;;;46.55;43.97;;;;;;;28.52;35.25;101768.63;4973603;28;20053;-83
2022/07/19 08:08:38;;;;;;;28.90;27.00;;;;;;;28.80;36.94;101762.38;4969070;28;20090;-81
2022/07/19 08:11:05;;;;;;;29.55;27.55;;;;;;;29.07;34.50;101765.09;4964377;28;20047;-81
2022/07/19 08:13:32;;;;;;;30.23;28.42;;;;;;;29.10;34.97;101769.16;4967679;28;20058;-83
2022/07/19 08:15:59;;;;;;;49.95;47.25;;;;;;;29.03;36.05;101771.50;4963741;28;20055;-80
2022/07/19 08:18:27;;;;;;;51.15;48.33;;;;;;;29.28;35.79;101775.63;4964297;28;20051;-83
2022/07/19 08:20:54;;;;;;;47.55;44.97;;;;;;;29.01;34.44;101755.38;4962544;28;20054;-85
2022/07/19 08:23:21;;;;;;;45.92;43.53;;;;;;;28.81;33.75;101762.06;4968486;28;20055;-80
2022/07/19 08:25:48;;;;;;;44.20;41.80;;;;;;;29.31;35.32;101764.88;4963051;28;20049;-83
2022/07/19 08:28:14;;;;;;;54.83;51.95;;;;;;;28.77;36.71;101761.84;4963811;28;20039;-81
2022/07/19 08:30:41;;;;;;;54.03;51.13;;;;;;;29.04;43.62;101762.19;4963898;28;20055;-82
2022/07/19 08:33:09;;;;;;;51.45;48.30;;;;;;;29.29;34.89;101763.53;4967064;28;20062;-82
2022/07/19 08:35:37;;;;;;;52.97;50.00;;;;;;;29.08;37.06;101754.97;4967454;28;20051;-83
2022/07/19 08:38:04;;;;;;;45.55;43.20;;;;;;;29.31;33.48;101759.38;4959434;28;20051;-82
2022/07/19 08:40:35;;;;;;;36.70;34.78;;;;;;;29.45;32.15;101757.44;4963863;28;20039;-82
2022/07/19 08:43:05;;;;;;;36.75;34.83;;;;;;;29.31;36.29;101759.38;4965506;28;20117;-82
2022/07/19 08:45:32;;;;;;;72.22;68.72;;;;;;;29.40;32.22;101754.81;4970626;28;20455;-81
2022/07/19 08:47:59;;;;;;;58.33;55.45;;;;;;;29.54;34.76;101751.25;4973681;28;20050;-80
2022/07/19 08:50:27;;;;;;;60.58;57.58;;;;;;;29.20;31.89;101752.53;4972774;28;20044;-82
2022/07/19 08:52:58;;;;;;;61.70;58.22;;;;;;;29.84;32.24;101749.72;4965147;28;20051;-81
2022/07/19 08:55:25;;;;;;;51.47;48.78;;;;;;;28.97;31.00;101743.44;4973051;28;20534;-81
2022/07/19 08:58:01;;;;;;;44.60;42.10;;;;;;;29.29;32.62;101750.69;4976279;28;20050;-81
2022/07/19 09:00:28;;;;;;;30.63;28.80;;;;;;;29.51;38.25;101744.44;4973439;28;20139;-82
2022/07/19 09:02:57;;;;;;;36.47;34.03;;;;;;;29.61;32.95;101743.38;4976110;28;20051;-81
2022/07/19 09:05:26;;;;;;;33.80;31.58;;;;;;;29.67;33.50;101745.72;4968508;28;20550;-82
2022/07/19 09:08:10;;;;;;;30.58;28.48;;;;;;;29.94;31.85;101740.44;4975008;28;20057;-82
2022/07/19 09:10:38;;;;;;;30.50;28.60;;;;;;;29.81;33.29;101742.13;4972988;28;20475;-82
2022/07/19 09:13:10;;;;;;;26.92;25.33;;;;;;;29.77;30.92;101746.59;4978282;28;20047;-81
2022/07/19 09:15:42;;;;;;;29.63;27.73;;;;;;;30.03;31.29;101733.09;4973732;28;20451;-82
2022/07/19 09:18:11;;;;;;;27.15;25.15;;;;;;;29.44;30.78;101733.94;4974866;28;20051;-83
2022/07/19 09:20:38;;;;;;;27.42;25.52;;;;;;;29.38;30.52;101735.19;4979256;28;20047;-81
2022/07/19 09:23:10;;;;;;;26.85;24.95;;;;;;;30.21;33.57;101743.03;4979392;28;20058;-82
2022/07/19 09:25:39;;;;;;;27.27;25.13;;;;;;;30.23;29.91;101734.50;4974885;28;20046;-81
2022/07/19 09:28:09;;;;;;;25.48;23.77;;;;;;;30.17;31.59;101728.34;4979013;28;20054;-83
2022/07/19 09:30:42;;;;;;;25.17;23.35;;;;;;;30.18;31.83;101732.69;4977761;28;20402;-82
2022/07/19 09:33:14;;;;;;;26.30;24.50;;;;;;;30.49;31.34;101723.66;4972401;28;20078;-83
2022/07/19 09:35:44;;;;;;;26.42;24.70;;;;;;;30.19;37.23;101728.81;4977275;28;20050;-82
2022/07/19 09:38:21;;;;;;;26.50;24.63;;;;;;;30.62;31.99;101721.94;4973850;28;20054;-82
2022/07/19 09:40:50;;;;;;;25.55;23.60;;;;;;;30.39;32.24;101724.75;4965040;28;20495;-80
2022/07/19 09:43:19;;;;;;;24.92;23.00;;;;;;;30.65;37.51;101730.31;4968588;28;20049;-82
2022/07/19 09:45:49;;;;;;;25.00;23.20;;;;;;;30.51;32.08;101729.63;4965819;28;20046;-81
2022/07/19 09:48:16;;;;;;;25.65;23.83;;;;;;;30.24;29.64;101720.50;4969378;28;20111;-81
2022/07/19 09:50:47;;;;;;;24.67;22.88;;;;;;;30.42;29.77;101715.91;4967644;28;20057;-80
2022/07/19 09:53:15;;;;;;;26.73;24.48;;;;;;;30.93;30.58;101710.91;4967044;28;20110;-81
2022/07/19 09:55:46;;;;;;;26.20;24.50;;;;;;;30.22;28.65;101716.44;4977350;28;20055;-81
2022/07/19 09:58:14;;;;;;;27.30;25.17;;;;;;;30.24;30.93;101712.28;4966967;28;20046;-82
2022/07/19 10:00:53;;;;;;;26.02;24.17;;;;;;;30.47;38.69;101715.78;4974853;28;20447;-80
2022/07/19 10:03:21;;;;;;;26.67;24.45;;;;;;;30.96;29.49;101710.28;4937307;29;20071;-81
2022/07/19 10:05:49;;;;;;;25.42;23.63;;;;;;;30.71;30.98;101703.56;4932622;29;20047;-82
2022/07/19 10:08:16;;;;;;;25.17;23.38;;;;;;;30.87;29.15;101715.75;4922249;29;20453;-80
2022/07/19 10:10:43;;;;;;;26.58;24.38;;;;;;;30.19;29.96;101706.09;4929967;29;20048;-79
2022/07/19 10:13:12;;;;;;;27.10;24.80;;;;;;;30.22;29.56;101700.00;4929999;29;20163;-80
2022/07/19 10:15:47;;;;;;;29.52;27.00;;;;;;;30.64;31.84;101709.53;4933691;29;20044;-80
2022/07/19 10:18:20;;;;;;;26.45;24.75;;;;;;;30.50;29.92;101704.16;4933156;29;20048;-79
2022/07/19 10:20:48;;;;;;;27.58;25.50;;;;;;;30.85;28.79;101698.00;4935891;29;20044;-81
2022/07/19 10:23:15;;;;;;;27.85;25.95;;;;;;;30.64;29.25;101698.56;4939711;29;20051;-84
2022/07/19 10:25:44;;;;;;;27.20;25.45;;;;;;;30.25;38.00;101696.66;4932364;29;20070;-82
2022/07/19 10:28:36;;;;;;;28.35;26.25;;;;;;;30.84;34.80;101699.13;4935843;29;20500;-80
2022/07/19 10:31:25;;;;;;;30.45;28.35;;;;;;;31.14;33.58;101680.94;4940882;29;20454;-80
2022/07/19 10:34:00;;;;;;;27.75;25.55;;;;;;;31.32;29.73;101685.28;4926893;29;20425;-79
2022/07/19 10:36:38;;;;;;;26.27;24.27;;;;;;;31.79;28.51;101673.59;4938465;29;20052;-81
2022/07/19 10:39:27;;;;;;;25.23;23.33;;;;;;;31.86;28.37;101665.66;4940204;29;20540;-80
2022/07/19 10:42:18;;;;;;;28.40;26.52;;;;;;;31.68;27.92;101667.66;4932602;29;20056;-82
2022/07/19 10:45:16;;;;;;;27.00;25.05;;;;;;;30.65;28.10;101669.19;4930525;29;20052;-82
2022/07/19 10:48:09;;;;;;;27.90;25.63;;;;;;;31.72;28.71;101654.91;4936256;29;20059;-82
2022/07/19 10:50:59;;;;;;;25.92;23.92;;;;;;;32.17;29.40;101658.00;4934543;29;20048;-81
2022/07/19 10:54:10;;;;;;;30.00;27.65;;;;;;;31.90;27.65;101652.94;4933394;29;20043;-82
2022/07/19 10:56:42;;;;;;;28.33;26.42;;;;;;;31.60;27.53;101652.81;4938390;29;20047;-81
2022/07/19 10:59:11;;;;;;;27.60;25.67;;;;;;;31.84;27.51;101645.97;4936483;29;20504;-79
2022/07/19 11:01:54;;;;;;;27.80;25.80;;;;;;;32.20;28.47;101648.28;4945162;28;20062;-80
2022/07/19 11:04:28;;;;;;;26.08;24.05;;;;;;;31.14;28.50;101648.00;4972069;28;20051;-80
2022/07/19 11:07:16;;;;;;;24.98;22.80;;;;;;;32.07;28.25;101635.56;4978835;28;20078;-83
2022/07/19 11:09:45;;;;;;;25.33;23.20;;;;;;;31.68;26.84;101635.53;4966292;28;20459;-81
2022/07/19 11:12:29;;;;;;;26.38;24.48;;;;;;;31.46;27.66;101630.22;4972989;28;20502;-81
2022/07/19 11:14:57;;;;;;;27.80;26.00;;;;;;;31.80;28.12;101625.78;4967882;28;20047;-80
2022/07/19 11:17:26;;;;;;;38.75;36.55;;;;;;;30.97;29.67;101635.88;4971324;28;20082;-81
2022/07/19 11:20:01;;;;;;;35.22;33.22;;;;;;;31.28;28.66;101626.69;4974881;28;20050;-81